sensor_id;sensor_type;location;lat;lon;timestamp;P1;durP1;ratioP1;P2;durP2;ratioP2
3341;SDS011;1684;50.748;6.154;2022-08-01T00:01:29;2.87;;;1.60;;
3341;SDS011;1684;50.748;6.154;2022-08-01T00:03:57;6.47;;;2.30;;
3341;SDS011;1684;50.748;6.154;2022-08-01T00:06:26;4.70;;;2.30;;
3341;SDS011;1684;50.748;6.154;2022-08-01T00:08:54;3.33;;;2.20;;
3341;SDS011;1684;50.748;6.154;2022-08-01T00:11:23;3.80;;;2.10;;
3341;SDS011;1684;50.748;6.154;2022-08-01T00:13:51;2.57;;;1.83;;
3341;SDS011;1684;50.748;6.154;2022-08-01T00:16:19;3.40;;;2.00;;
3341;SDS011;1684;50.748;6.154;2022-08-01T00:18:51;3.07;;;1.90;;
3341;SDS011;1684;50.748;6.154;2022-08-01T00:21:19;5.00;;;1.80;;
3341;SDS011;1684;50.748;6.154;2022-08-01T00:23:47;3.27;;;1.97;;
3341;SDS011;1684;50.748;6.154;2022-08-01T00:26:16;3.67;;;2.47;;
3341;SDS011;1684;50.748;6.154;2022-08-01T00:28:44;3.00;;;2.37;;
3341;SDS011;1684;50.748;6.154;2022-08-01T00:31:13;3.30;;;2.00;;
3341;SDS011;1684;50.748;6.154;2022-08-01T00:33:41;3.33;;;2.30;;
3341;SDS011;1684;50.748;6.154;2022-08-01T00:36:10;2.63;;;2.10;;
3341;SDS011;1684;50.748;6.154;2022-08-01T00:38:39;5.50;;;3.33;;
3341;SDS011;1684;50.748;6.154;2022-08-01T00:41:07;3.37;;;2.10;;
3341;SDS011;1684;50.748;6.154;2022-08-01T00:43:35;5.47;;;2.47;;
3341;SDS011;1684;50.748;6.154;2022-08-01T00:46:04;3.63;;;2.20;;
3341;SDS011;1684;50.748;6.154;2022-08-01T00:48:32;2.63;;;1.90;;
3341;SDS011;1684;50.748;6.154;2022-08-01T00:51:00;3.10;;;2.23;;
3341;SDS011;1684;50.748;6.154;2022-08-01T00:53:30;3.43;;;2.20;;
3341;SDS011;1684;50.748;6.154;2022-08-01T00:56:17;3.40;;;2.30;;
3341;SDS011;1684;50.748;6.154;2022-08-01T00:58:46;5.53;;;2.37;;
3341;SDS011;1684;50.748;6.154;2022-08-01T01:01:15;4.07;;;2.60;;
3341;SDS011;1684;50.748;6.154;2022-08-01T01:03:44;2.40;;;2.20;;
3341;SDS011;1684;50.748;6.154;2022-08-01T01:06:35;8.33;;;2.53;;
3341;SDS011;1684;50.748;6.154;2022-08-01T01:12:00;3.40;;;2.50;;
3341;SDS011;1684;50.748;6.154;2022-08-01T01:14:31;4.53;;;2.23;;
3341;SDS011;1684;50.748;6.154;2022-08-01T01:17:00;5.30;;;3.00;;
3341;SDS011;1684;50.748;6.154;2022-08-01T01:19:31;2.63;;;2.43;;
3341;SDS011;1684;50.748;6.154;2022-08-01T01:22:11;3.50;;;2.20;;
3341;SDS011;1684;50.748;6.154;2022-08-01T01:24:47;5.97;;;2.40;;
3341;SDS011;1684;50.748;6.154;2022-08-01T01:27:21;5.83;;;2.83;;
3341;SDS011;1684;50.748;6.154;2022-08-01T01:29:53;4.80;;;3.10;;
3341;SDS011;1684;50.748;6.154;2022-08-01T01:32:28;3.40;;;2.80;;
3341;SDS011;1684;50.748;6.154;2022-08-01T01:35:00;4.40;;;2.83;;
3341;SDS011;1684;50.748;6.154;2022-08-01T01:37:30;4.07;;;2.60;;
3341;SDS011;1684;50.748;6.154;2022-08-01T01:40:00;4.00;;;2.40;;
3341;SDS011;1684;50.748;6.154;2022-08-01T01:42:30;3.80;;;2.80;;
3341;SDS011;1684;50.748;6.154;2022-08-01T01:45:00;4.47;;;2.63;;
3341;SDS011;1684;50.748;6.154;2022-08-01T01:47:28;5.70;;;2.70;;
3341;SDS011;1684;50.748;6.154;2022-08-01T01:49:57;3.47;;;3.17;;
3341;SDS011;1684;50.748;6.154;2022-08-01T01:52:27;7.20;;;2.90;;
3341;SDS011;1684;50.748;6.154;2022-08-01T01:54:55;3.90;;;2.63;;
3341;SDS011;1684;50.748;6.154;2022-08-01T01:57:24;2.93;;;2.00;;
3341;SDS011;1684;50.748;6.154;2022-08-01T01:59:53;3.37;;;3.03;;
3341;SDS011;1684;50.748;6.154;2022-08-01T02:02:23;4.17;;;2.60;;
3341;SDS011;1684;50.748;6.154;2022-08-01T02:04:52;3.50;;;2.30;;
3341;SDS011;1684;50.748;6.154;2022-08-01T02:07:22;3.80;;;2.73;;
3341;SDS011;1684;50.748;6.154;2022-08-01T02:09:52;3.80;;;2.57;;
3341;SDS011;1684;50.748;6.154;2022-08-01T02:12:21;2.97;;;2.40;;
3341;SDS011;1684;50.748;6.154;2022-08-01T02:14:49;4.40;;;2.27;;
3341;SDS011;1684;50.748;6.154;2022-08-01T02:17:20;6.23;;;2.50;;
3341;SDS011;1684;50.748;6.154;2022-08-01T02:19:50;3.50;;;3.03;;
3341;SDS011;1684;50.748;6.154;2022-08-01T02:22:19;3.80;;;2.80;;
3341;SDS011;1684;50.748;6.154;2022-08-01T02:24:49;8.63;;;2.93;;
3341;SDS011;1684;50.748;6.154;2022-08-01T02:27:20;6.53;;;3.00;;
3341;SDS011;1684;50.748;6.154;2022-08-01T02:29:52;3.67;;;2.80;;
3341;SDS011;1684;50.748;6.154;2022-08-01T02:32:23;4.00;;;2.60;;
3341;SDS011;1684;50.748;6.154;2022-08-01T02:34:53;4.80;;;2.57;;
3341;SDS011;1684;50.748;6.154;2022-08-01T02:37:23;6.33;;;2.87;;
3341;SDS011;1684;50.748;6.154;2022-08-01T02:39:54;4.50;;;2.37;;
3341;SDS011;1684;50.748;6.154;2022-08-01T02:42:23;3.23;;;2.53;;
3341;SDS011;1684;50.748;6.154;2022-08-01T02:44:52;3.03;;;2.60;;
3341;SDS011;1684;50.748;6.154;2022-08-01T02:47:21;3.70;;;3.27;;
3341;SDS011;1684;50.748;6.154;2022-08-01T02:49:51;4.90;;;2.60;;
3341;SDS011;1684;50.748;6.154;2022-08-01T02:52:21;4.17;;;2.93;;
3341;SDS011;1684;50.748;6.154;2022-08-01T02:54:51;3.43;;;2.73;;
3341;SDS011;1684;50.748;6.154;2022-08-01T02:57:21;3.33;;;2.63;;
3341;SDS011;1684;50.748;6.154;2022-08-01T02:59:58;3.73;;;2.60;;
3341;SDS011;1684;50.748;6.154;2022-08-01T03:02:28;3.47;;;2.53;;
3341;SDS011;1684;50.748;6.154;2022-08-01T03:04:57;4.83;;;3.00;;
3341;SDS011;1684;50.748;6.154;2022-08-01T03:07:27;2.43;;;2.20;;
3341;SDS011;1684;50.748;6.154;2022-08-01T03:10:06;5.53;;;3.03;;
3341;SDS011;1684;50.748;6.154;2022-08-01T03:12:34;4.70;;;3.03;;
3341;SDS011;1684;50.748;6.154;2022-08-01T03:15:03;3.60;;;3.07;;
3341;SDS011;1684;50.748;6.154;2022-08-01T03:17:35;5.90;;;4.93;;
3341;SDS011;1684;50.748;6.154;2022-08-01T03:20:05;4.30;;;2.90;;
3341;SDS011;1684;50.748;6.154;2022-08-01T03:22:36;3.73;;;3.23;;
3341;SDS011;1684;50.748;6.154;2022-08-01T03:25:06;4.90;;;2.90;;
3341;SDS011;1684;50.748;6.154;2022-08-01T03:27:35;4.10;;;2.90;;
3341;SDS011;1684;50.748;6.154;2022-08-01T03:30:05;5.20;;;2.70;;
3341;SDS011;1684;50.748;6.154;2022-08-01T03:32:34;5.80;;;3.13;;
3341;SDS011;1684;50.748;6.154;2022-08-01T03:35:02;5.70;;;3.30;;
3341;SDS011;1684;50.748;6.154;2022-08-01T03:37:32;4.03;;;3.60;;
3341;SDS011;1684;50.748;6.154;2022-08-01T03:40:06;3.60;;;2.87;;
3341;SDS011;1684;50.748;6.154;2022-08-01T03:42:36;4.30;;;3.10;;
3341;SDS011;1684;50.748;6.154;2022-08-01T03:45:06;4.27;;;3.13;;
3341;SDS011;1684;50.748;6.154;2022-08-01T03:47:38;7.23;;;3.40;;
3341;SDS011;1684;50.748;6.154;2022-08-01T03:50:10;5.10;;;3.30;;
3341;SDS011;1684;50.748;6.154;2022-08-01T03:52:40;5.00;;;3.70;;
3341;SDS011;1684;50.748;6.154;2022-08-01T03:55:11;5.60;;;4.10;;
3341;SDS011;1684;50.748;6.154;2022-08-01T03:57:40;8.60;;;4.43;;
3341;SDS011;1684;50.748;6.154;2022-08-01T04:00:10;3.87;;;3.17;;
3341;SDS011;1684;50.748;6.154;2022-08-01T04:02:39;4.60;;;3.50;;
3341;SDS011;1684;50.748;6.154;2022-08-01T04:05:07;4.80;;;3.40;;
3341;SDS011;1684;50.748;6.154;2022-08-01T04:07:36;4.03;;;3.43;;
3341;SDS011;1684;50.748;6.154;2022-08-01T04:10:05;5.00;;;3.80;;
3341;SDS011;1684;50.748;6.154;2022-08-01T04:12:35;5.50;;;3.23;;
3341;SDS011;1684;50.748;6.154;2022-08-01T04:15:04;4.97;;;3.50;;
3341;SDS011;1684;50.748;6.154;2022-08-01T04:17:33;8.23;;;4.20;;
3341;SDS011;1684;50.748;6.154;2022-08-01T04:20:01;7.80;;;4.20;;
3341;SDS011;1684;50.748;6.154;2022-08-01T04:22:29;5.70;;;3.50;;
3341;SDS011;1684;50.748;6.154;2022-08-01T04:25:03;8.90;;;3.97;;
3341;SDS011;1684;50.748;6.154;2022-08-01T04:27:34;9.63;;;6.17;;
3341;SDS011;1684;50.748;6.154;2022-08-01T04:30:19;4.30;;;2.67;;
3341;SDS011;1684;50.748;6.154;2022-08-01T04:32:48;6.00;;;4.53;;
3341;SDS011;1684;50.748;6.154;2022-08-01T04:35:18;6.33;;;3.73;;
3341;SDS011;1684;50.748;6.154;2022-08-01T04:38:07;3.07;;;2.43;;
3341;SDS011;1684;50.748;6.154;2022-08-01T04:40:36;8.83;;;4.57;;
3341;SDS011;1684;50.748;6.154;2022-08-01T04:43:05;6.20;;;3.70;;
3341;SDS011;1684;50.748;6.154;2022-08-01T04:45:35;4.47;;;3.03;;
3341;SDS011;1684;50.748;6.154;2022-08-01T04:48:05;5.30;;;2.40;;
3341;SDS011;1684;50.748;6.154;2022-08-01T04:50:34;3.37;;;2.60;;
3341;SDS011;1684;50.748;6.154;2022-08-01T04:53:02;3.70;;;3.27;;
3341;SDS011;1684;50.748;6.154;2022-08-01T04:55:31;8.70;;;5.17;;
3341;SDS011;1684;50.748;6.154;2022-08-01T04:58:01;11.70;;;6.47;;
3341;SDS011;1684;50.748;6.154;2022-08-01T05:00:30;5.77;;;4.97;;
3341;SDS011;1684;50.748;6.154;2022-08-01T05:03:01;11.20;;;7.37;;
3341;SDS011;1684;50.748;6.154;2022-08-01T05:05:29;11.60;;;7.77;;
3341;SDS011;1684;50.748;6.154;2022-08-01T05:07:58;8.10;;;4.43;;
3341;SDS011;1684;50.748;6.154;2022-08-01T05:10:29;8.80;;;6.03;;
3341;SDS011;1684;50.748;6.154;2022-08-01T05:12:58;9.40;;;7.57;;
3341;SDS011;1684;50.748;6.154;2022-08-01T05:15:26;4.10;;;3.37;;
3341;SDS011;1684;50.748;6.154;2022-08-01T05:17:54;6.60;;;3.67;;
3341;SDS011;1684;50.748;6.154;2022-08-01T05:20:24;13.57;;;7.50;;
3341;SDS011;1684;50.748;6.154;2022-08-01T05:22:52;7.17;;;4.90;;
3341;SDS011;1684;50.748;6.154;2022-08-01T05:25:22;5.67;;;5.07;;
3341;SDS011;1684;50.748;6.154;2022-08-01T05:28:11;13.83;;;6.43;;
3341;SDS011;1684;50.748;6.154;2022-08-01T05:30:44;7.27;;;6.23;;
3341;SDS011;1684;50.748;6.154;2022-08-01T05:33:12;8.97;;;6.53;;
3341;SDS011;1684;50.748;6.154;2022-08-01T05:35:42;4.80;;;3.73;;
3341;SDS011;1684;50.748;6.154;2022-08-01T05:38:14;6.07;;;3.83;;
3341;SDS011;1684;50.748;6.154;2022-08-01T05:40:42;4.10;;;3.50;;
3341;SDS011;1684;50.748;6.154;2022-08-01T05:43:11;9.33;;;6.70;;
3341;SDS011;1684;50.748;6.154;2022-08-01T05:45:39;6.77;;;4.73;;
3341;SDS011;1684;50.748;6.154;2022-08-01T05:48:08;11.33;;;7.00;;
3341;SDS011;1684;50.748;6.154;2022-08-01T05:50:36;5.40;;;4.77;;
3341;SDS011;1684;50.748;6.154;2022-08-01T05:53:05;8.77;;;7.27;;
3341;SDS011;1684;50.748;6.154;2022-08-01T05:55:34;11.47;;;7.47;;
3341;SDS011;1684;50.748;6.154;2022-08-01T05:58:02;7.93;;;6.47;;
3341;SDS011;1684;50.748;6.154;2022-08-01T06:00:31;13.57;;;8.70;;
3341;SDS011;1684;50.748;6.154;2022-08-01T06:02:59;11.63;;;7.97;;
3341;SDS011;1684;50.748;6.154;2022-08-01T06:05:27;13.40;;;8.17;;
3341;SDS011;1684;50.748;6.154;2022-08-01T06:07:56;12.90;;;9.43;;
3341;SDS011;1684;50.748;6.154;2022-08-01T06:10:26;12.30;;;7.80;;
3341;SDS011;1684;50.748;6.154;2022-08-01T06:12:54;6.13;;;5.07;;
3341;SDS011;1684;50.748;6.154;2022-08-01T06:15:22;8.23;;;5.77;;
3341;SDS011;1684;50.748;6.154;2022-08-01T06:17:51;12.73;;;7.70;;
3341;SDS011;1684;50.748;6.154;2022-08-01T06:20:19;15.17;;;10.23;;
3341;SDS011;1684;50.748;6.154;2022-08-01T06:22:47;14.20;;;10.00;;
3341;SDS011;1684;50.748;6.154;2022-08-01T06:25:18;15.57;;;8.80;;
3341;SDS011;1684;50.748;6.154;2022-08-01T06:27:48;9.90;;;6.57;;
3341;SDS011;1684;50.748;6.154;2022-08-01T06:30:16;11.00;;;6.73;;
3341;SDS011;1684;50.748;6.154;2022-08-01T06:32:45;14.97;;;9.50;;
3341;SDS011;1684;50.748;6.154;2022-08-01T06:35:13;11.50;;;7.07;;
3341;SDS011;1684;50.748;6.154;2022-08-01T06:37:41;15.93;;;10.30;;
3341;SDS011;1684;50.748;6.154;2022-08-01T06:40:11;14.40;;;9.90;;
3341;SDS011;1684;50.748;6.154;2022-08-01T06:42:42;12.10;;;9.00;;
3341;SDS011;1684;50.748;6.154;2022-08-01T06:45:13;6.47;;;5.00;;
3341;SDS011;1684;50.748;6.154;2022-08-01T06:47:42;14.97;;;7.30;;
3341;SDS011;1684;50.748;6.154;2022-08-01T06:50:18;9.03;;;5.27;;
3341;SDS011;1684;50.748;6.154;2022-08-01T06:52:52;15.47;;;10.30;;
3341;SDS011;1684;50.748;6.154;2022-08-01T06:55:20;10.43;;;7.83;;
3341;SDS011;1684;50.748;6.154;2022-08-01T06:57:49;9.37;;;6.20;;
3341;SDS011;1684;50.748;6.154;2022-08-01T07:00:19;11.00;;;5.00;;
3341;SDS011;1684;50.748;6.154;2022-08-01T07:02:49;12.70;;;8.67;;
3341;SDS011;1684;50.748;6.154;2022-08-01T07:05:17;6.80;;;4.57;;
3341;SDS011;1684;50.748;6.154;2022-08-01T07:07:45;12.40;;;7.40;;
3341;SDS011;1684;50.748;6.154;2022-08-01T07:10:14;14.47;;;7.47;;
3341;SDS011;1684;50.748;6.154;2022-08-01T07:12:42;13.10;;;7.87;;
3341;SDS011;1684;50.748;6.154;2022-08-01T07:15:10;11.53;;;8.60;;
3341;SDS011;1684;50.748;6.154;2022-08-01T07:17:41;14.00;;;9.40;;
3341;SDS011;1684;50.748;6.154;2022-08-01T07:20:10;11.80;;;8.33;;
3341;SDS011;1684;50.748;6.154;2022-08-01T07:22:41;13.83;;;9.50;;
3341;SDS011;1684;50.748;6.154;2022-08-01T07:25:12;11.70;;;8.43;;
3341;SDS011;1684;50.748;6.154;2022-08-01T07:27:41;18.30;;;10.60;;
3341;SDS011;1684;50.748;6.154;2022-08-01T07:30:09;15.43;;;8.60;;
3341;SDS011;1684;50.748;6.154;2022-08-01T07:32:38;11.47;;;6.67;;
3341;SDS011;1684;50.748;6.154;2022-08-01T07:35:08;13.20;;;9.40;;
3341;SDS011;1684;50.748;6.154;2022-08-01T07:37:37;17.63;;;9.90;;
3341;SDS011;1684;50.748;6.154;2022-08-01T07:40:14;14.43;;;9.17;;
3341;SDS011;1684;50.748;6.154;2022-08-01T07:42:43;16.00;;;11.33;;
3341;SDS011;1684;50.748;6.154;2022-08-01T07:45:12;15.60;;;11.37;;
3341;SDS011;1684;50.748;6.154;2022-08-01T07:47:40;16.00;;;11.00;;
3341;SDS011;1684;50.748;6.154;2022-08-01T07:50:10;14.07;;;9.53;;
3341;SDS011;1684;50.748;6.154;2022-08-01T07:52:39;13.33;;;9.40;;
3341;SDS011;1684;50.748;6.154;2022-08-01T07:55:08;11.27;;;9.20;;
3341;SDS011;1684;50.748;6.154;2022-08-01T07:57:41;15.70;;;10.67;;
3341;SDS011;1684;50.748;6.154;2022-08-01T08:00:10;13.47;;;9.90;;
3341;SDS011;1684;50.748;6.154;2022-08-01T08:02:39;17.10;;;11.03;;
3341;SDS011;1684;50.748;6.154;2022-08-01T08:05:08;13.17;;;8.67;;
3341;SDS011;1684;50.748;6.154;2022-08-01T08:07:38;12.67;;;8.60;;
3341;SDS011;1684;50.748;6.154;2022-08-01T08:10:07;16.10;;;9.73;;
3341;SDS011;1684;50.748;6.154;2022-08-01T08:12:35;13.30;;;9.50;;
3341;SDS011;1684;50.748;6.154;2022-08-01T08:15:04;16.80;;;10.60;;
3341;SDS011;1684;50.748;6.154;2022-08-01T08:17:32;17.50;;;11.73;;
3341;SDS011;1684;50.748;6.154;2022-08-01T08:20:02;16.40;;;11.07;;
3341;SDS011;1684;50.748;6.154;2022-08-01T08:22:34;9.33;;;6.67;;
3341;SDS011;1684;50.748;6.154;2022-08-01T08:25:04;12.20;;;9.53;;
3341;SDS011;1684;50.748;6.154;2022-08-01T08:27:33;16.60;;;10.30;;
3341;SDS011;1684;50.748;6.154;2022-08-01T08:30:03;16.43;;;10.47;;
3341;SDS011;1684;50.748;6.154;2022-08-01T08:32:34;12.80;;;9.77;;
3341;SDS011;1684;50.748;6.154;2022-08-01T08:35:03;12.27;;;8.47;;
3341;SDS011;1684;50.748;6.154;2022-08-01T08:37:32;14.67;;;9.87;;
3341;SDS011;1684;50.748;6.154;2022-08-01T08:40:10;14.77;;;9.80;;
3341;SDS011;1684;50.748;6.154;2022-08-01T08:42:39;12.90;;;9.43;;
3341;SDS011;1684;50.748;6.154;2022-08-01T08:45:08;12.07;;;8.50;;
3341;SDS011;1684;50.748;6.154;2022-08-01T08:47:37;14.70;;;9.60;;
3341;SDS011;1684;50.748;6.154;2022-08-01T08:50:06;13.83;;;8.87;;
3341;SDS011;1684;50.748;6.154;2022-08-01T08:52:35;16.10;;;9.60;;
3341;SDS011;1684;50.748;6.154;2022-08-01T08:55:06;11.07;;;8.10;;
3341;SDS011;1684;50.748;6.154;2022-08-01T08:57:39;13.57;;;10.17;;
3341;SDS011;1684;50.748;6.154;2022-08-01T09:00:08;15.90;;;10.17;;
3341;SDS011;1684;50.748;6.154;2022-08-01T09:02:40;17.10;;;10.03;;
3341;SDS011;1684;50.748;6.154;2022-08-01T09:05:08;12.30;;;7.97;;
3341;SDS011;1684;50.748;6.154;2022-08-01T09:07:44;12.83;;;7.67;;
3341;SDS011;1684;50.748;6.154;2022-08-01T09:10:12;8.80;;;7.10;;
3341;SDS011;1684;50.748;6.154;2022-08-01T09:12:59;10.13;;;7.47;;
3341;SDS011;1684;50.748;6.154;2022-08-01T09:15:37;11.40;;;8.47;;
3341;SDS011;1684;50.748;6.154;2022-08-01T09:18:05;11.17;;;8.00;;
3341;SDS011;1684;50.748;6.154;2022-08-01T09:20:34;10.37;;;8.40;;
3341;SDS011;1684;50.748;6.154;2022-08-01T09:23:02;9.83;;;7.43;;
3341;SDS011;1684;50.748;6.154;2022-08-01T09:25:31;10.20;;;7.70;;
3341;SDS011;1684;50.748;6.154;2022-08-01T09:28:19;6.10;;;5.00;;
3341;SDS011;1684;50.748;6.154;2022-08-01T09:30:55;9.67;;;6.17;;
3341;SDS011;1684;50.748;6.154;2022-08-01T09:33:23;10.53;;;6.80;;
3341;SDS011;1684;50.748;6.154;2022-08-01T09:35:54;11.57;;;8.13;;
3341;SDS011;1684;50.748;6.154;2022-08-01T09:38:23;12.20;;;9.00;;
3341;SDS011;1684;50.748;6.154;2022-08-01T09:40:53;10.77;;;7.40;;
3341;SDS011;1684;50.748;6.154;2022-08-01T09:43:25;12.67;;;8.13;;
3341;SDS011;1684;50.748;6.154;2022-08-01T09:45:54;9.57;;;5.63;;
3341;SDS011;1684;50.748;6.154;2022-08-01T09:48:23;7.43;;;5.30;;
3341;SDS011;1684;50.748;6.154;2022-08-01T09:50:55;7.73;;;6.20;;
3341;SDS011;1684;50.748;6.154;2022-08-01T09:53:39;7.80;;;5.13;;
3341;SDS011;1684;50.748;6.154;2022-08-01T09:56:16;7.80;;;5.90;;
3341;SDS011;1684;50.748;6.154;2022-08-01T09:58:57;9.73;;;7.73;;
3341;SDS011;1684;50.748;6.154;2022-08-01T10:01:28;8.00;;;5.83;;
3341;SDS011;1684;50.748;6.154;2022-08-01T10:04:04;15.17;;;10.50;;
3341;SDS011;1684;50.748;6.154;2022-08-01T10:06:37;5.87;;;5.07;;
3341;SDS011;1684;50.748;6.154;2022-08-01T10:09:07;6.57;;;5.70;;
3341;SDS011;1684;50.748;6.154;2022-08-01T10:11:35;6.40;;;5.60;;
3341;SDS011;1684;50.748;6.154;2022-08-01T10:14:07;6.30;;;5.70;;
3341;SDS011;1684;50.748;6.154;2022-08-01T10:16:36;9.20;;;6.07;;
3341;SDS011;1684;50.748;6.154;2022-08-01T10:19:05;8.10;;;5.60;;
3341;SDS011;1684;50.748;6.154;2022-08-01T10:21:40;8.27;;;5.63;;
3341;SDS011;1684;50.748;6.154;2022-08-01T10:24:24;9.67;;;5.40;;
3341;SDS011;1684;50.748;6.154;2022-08-01T10:26:55;12.90;;;7.30;;
3341;SDS011;1684;50.748;6.154;2022-08-01T10:29:34;10.20;;;7.40;;
3341;SDS011;1684;50.748;6.154;2022-08-01T10:32:12;10.80;;;8.00;;
3341;SDS011;1684;50.748;6.154;2022-08-01T10:34:40;10.63;;;7.30;;
3341;SDS011;1684;50.748;6.154;2022-08-01T10:37:10;8.23;;;5.83;;
3341;SDS011;1684;50.748;6.154;2022-08-01T10:39:41;8.40;;;6.87;;
3341;SDS011;1684;50.748;6.154;2022-08-01T10:42:10;8.30;;;5.60;;
3341;SDS011;1684;50.748;6.154;2022-08-01T10:44:42;9.00;;;4.77;;
3341;SDS011;1684;50.748;6.154;2022-08-01T10:47:15;9.77;;;7.83;;
3341;SDS011;1684;50.748;6.154;2022-08-01T10:49:53;10.90;;;6.97;;
3341;SDS011;1684;50.748;6.154;2022-08-01T10:52:25;6.80;;;4.83;;
3341;SDS011;1684;50.748;6.154;2022-08-01T10:55:00;6.73;;;5.00;;
3341;SDS011;1684;50.748;6.154;2022-08-01T10:57:40;4.63;;;3.63;;
3341;SDS011;1684;50.748;6.154;2022-08-01T11:00:20;7.73;;;5.27;;
3341;SDS011;1684;50.748;6.154;2022-08-01T11:02:57;7.93;;;5.20;;
3341;SDS011;1684;50.748;6.154;2022-08-01T11:05:27;7.37;;;5.77;;
3341;SDS011;1684;50.748;6.154;2022-08-01T11:07:58;6.80;;;5.90;;
3341;SDS011;1684;50.748;6.154;2022-08-01T11:10:30;9.10;;;5.60;;
3341;SDS011;1684;50.748;6.154;2022-08-01T11:13:01;11.07;;;7.70;;
3341;SDS011;1684;50.748;6.154;2022-08-01T11:15:35;8.10;;;6.10;;
3341;SDS011;1684;50.748;6.154;2022-08-01T11:18:28;6.80;;;5.67;;
3341;SDS011;1684;50.748;6.154;2022-08-01T11:20:58;8.33;;;7.50;;
3341;SDS011;1684;50.748;6.154;2022-08-01T11:23:47;9.47;;;7.07;;
3341;SDS011;1684;50.748;6.154;2022-08-01T11:26:15;7.90;;;5.90;;
3341;SDS011;1684;50.748;6.154;2022-08-01T11:29:15;7.37;;;5.80;;
3341;SDS011;1684;50.748;6.154;2022-08-01T11:31:48;9.57;;;6.23;;
3341;SDS011;1684;50.748;6.154;2022-08-01T11:34:18;7.90;;;5.37;;
3341;SDS011;1684;50.748;6.154;2022-08-01T11:36:47;8.50;;;5.50;;
3341;SDS011;1684;50.748;6.154;2022-08-01T11:39:25;5.40;;;4.17;;
3341;SDS011;1684;50.748;6.154;2022-08-01T11:41:54;6.70;;;5.40;;
3341;SDS011;1684;50.748;6.154;2022-08-01T11:44:24;7.30;;;5.67;;
3341;SDS011;1684;50.748;6.154;2022-08-01T11:46:58;7.40;;;5.70;;
3341;SDS011;1684;50.748;6.154;2022-08-01T11:49:42;6.40;;;4.87;;
3341;SDS011;1684;50.748;6.154;2022-08-01T11:52:16;5.00;;;4.03;;
3341;SDS011;1684;50.748;6.154;2022-08-01T11:54:46;5.87;;;5.10;;
3341;SDS011;1684;50.748;6.154;2022-08-01T11:57:17;7.23;;;4.90;;
3341;SDS011;1684;50.748;6.154;2022-08-01T11:59:49;5.70;;;4.70;;
3341;SDS011;1684;50.748;6.154;2022-08-01T12:02:31;5.50;;;4.13;;
3341;SDS011;1684;50.748;6.154;2022-08-01T12:05:01;6.83;;;5.83;;
3341;SDS011;1684;50.748;6.154;2022-08-01T12:07:34;7.63;;;6.40;;
3341;SDS011;1684;50.748;6.154;2022-08-01T12:10:04;7.23;;;5.90;;
3341;SDS011;1684;50.748;6.154;2022-08-01T12:12:33;9.53;;;5.00;;
3341;SDS011;1684;50.748;6.154;2022-08-01T12:15:03;4.97;;;4.20;;
3341;SDS011;1684;50.748;6.154;2022-08-01T12:17:38;6.67;;;4.17;;
3341;SDS011;1684;50.748;6.154;2022-08-01T12:20:22;5.20;;;4.17;;
3341;SDS011;1684;50.748;6.154;2022-08-01T12:22:52;8.20;;;6.67;;
3341;SDS011;1684;50.748;6.154;2022-08-01T12:25:21;7.17;;;5.40;;
3341;SDS011;1684;50.748;6.154;2022-08-01T12:27:49;14.50;;;5.53;;
3341;SDS011;1684;50.748;6.154;2022-08-01T12:30:22;4.93;;;3.80;;
3341;SDS011;1684;50.748;6.154;2022-08-01T12:32:53;4.33;;;3.93;;
3341;SDS011;1684;50.748;6.154;2022-08-01T12:35:22;6.00;;;5.00;;
3341;SDS011;1684;50.748;6.154;2022-08-01T12:37:52;6.90;;;5.60;;
3341;SDS011;1684;50.748;6.154;2022-08-01T12:40:21;4.47;;;4.07;;
3341;SDS011;1684;50.748;6.154;2022-08-01T12:42:50;4.90;;;4.20;;
3341;SDS011;1684;50.748;6.154;2022-08-01T12:45:19;7.03;;;5.30;;
3341;SDS011;1684;50.748;6.154;2022-08-01T12:47:48;5.90;;;5.40;;
3341;SDS011;1684;50.748;6.154;2022-08-01T12:50:19;4.90;;;4.40;;
3341;SDS011;1684;50.748;6.154;2022-08-01T12:52:48;5.13;;;4.63;;
3341;SDS011;1684;50.748;6.154;2022-08-01T12:55:17;5.40;;;4.90;;
3341;SDS011;1684;50.748;6.154;2022-08-01T12:57:46;5.23;;;4.50;;
3341;SDS011;1684;50.748;6.154;2022-08-01T13:00:18;7.50;;;5.63;;
3341;SDS011;1684;50.748;6.154;2022-08-01T13:02:47;5.70;;;5.10;;
3341;SDS011;1684;50.748;6.154;2022-08-01T13:05:16;6.10;;;5.50;;
3341;SDS011;1684;50.748;6.154;2022-08-01T13:07:47;5.90;;;5.40;;
3341;SDS011;1684;50.748;6.154;2022-08-01T13:10:24;4.87;;;4.33;;
3341;SDS011;1684;50.748;6.154;2022-08-01T13:12:53;5.53;;;5.03;;
3341;SDS011;1684;50.748;6.154;2022-08-01T13:15:27;4.93;;;4.43;;
3341;SDS011;1684;50.748;6.154;2022-08-01T13:17:57;6.27;;;4.77;;
3341;SDS011;1684;50.748;6.154;2022-08-01T13:20:27;6.10;;;5.50;;
3341;SDS011;1684;50.748;6.154;2022-08-01T13:23:11;7.27;;;6.53;;
3341;SDS011;1684;50.748;6.154;2022-08-01T13:25:47;6.10;;;5.40;;
3341;SDS011;1684;50.748;6.154;2022-08-01T13:28:17;5.67;;;5.17;;
3341;SDS011;1684;50.748;6.154;2022-08-01T13:30:51;5.63;;;4.90;;
3341;SDS011;1684;50.748;6.154;2022-08-01T13:33:20;6.03;;;5.50;;
3341;SDS011;1684;50.748;6.154;2022-08-01T13:35:49;5.20;;;4.10;;
3341;SDS011;1684;50.748;6.154;2022-08-01T13:38:19;5.63;;;4.90;;
3341;SDS011;1684;50.748;6.154;2022-08-01T13:41:07;4.83;;;4.43;;
3341;SDS011;1684;50.748;6.154;2022-08-01T13:43:36;5.97;;;4.40;;
3341;SDS011;1684;50.748;6.154;2022-08-01T13:46:24;4.40;;;4.00;;
3341;SDS011;1684;50.748;6.154;2022-08-01T13:48:57;4.37;;;3.97;;
3341;SDS011;1684;50.748;6.154;2022-08-01T13:51:41;3.90;;;3.50;;
3341;SDS011;1684;50.748;6.154;2022-08-01T13:54:11;4.20;;;3.80;;
3341;SDS011;1684;50.748;6.154;2022-08-01T13:56:39;4.90;;;4.40;;
3341;SDS011;1684;50.748;6.154;2022-08-01T13:59:07;4.30;;;3.90;;
3341;SDS011;1684;50.748;6.154;2022-08-01T14:01:36;4.67;;;4.07;;
3341;SDS011;1684;50.748;6.154;2022-08-01T14:04:04;4.70;;;4.30;;
3341;SDS011;1684;50.748;6.154;2022-08-01T14:06:32;4.13;;;3.73;;
3341;SDS011;1684;50.748;6.154;2022-08-01T14:09:02;4.00;;;3.60;;
3341;SDS011;1684;50.748;6.154;2022-08-01T14:11:50;4.93;;;2.70;;
3341;SDS011;1684;50.748;6.154;2022-08-01T14:14:20;4.77;;;4.37;;
3341;SDS011;1684;50.748;6.154;2022-08-01T14:16:48;4.13;;;3.73;;
3341;SDS011;1684;50.748;6.154;2022-08-01T14:19:17;3.93;;;3.63;;
3341;SDS011;1684;50.748;6.154;2022-08-01T14:22:04;5.20;;;3.87;;
3341;SDS011;1684;50.748;6.154;2022-08-01T14:24:33;5.03;;;3.80;;
3341;SDS011;1684;50.748;6.154;2022-08-01T14:27:07;4.60;;;4.10;;
3341;SDS011;1684;50.748;6.154;2022-08-01T14:29:36;5.00;;;4.60;;
3341;SDS011;1684;50.748;6.154;2022-08-01T14:32:24;3.77;;;3.47;;
3341;SDS011;1684;50.748;6.154;2022-08-01T14:34:54;7.47;;;3.97;;
3341;SDS011;1684;50.748;6.154;2022-08-01T14:37:22;4.30;;;3.90;;
3341;SDS011;1684;50.748;6.154;2022-08-01T14:39:54;5.47;;;4.93;;
3341;SDS011;1684;50.748;6.154;2022-08-01T14:42:25;5.00;;;4.17;;
3341;SDS011;1684;50.748;6.154;2022-08-01T14:44:53;4.50;;;3.60;;
3341;SDS011;1684;50.748;6.154;2022-08-01T14:47:22;4.40;;;3.63;;
3341;SDS011;1684;50.748;6.154;2022-08-01T14:49:50;8.43;;;3.53;;
3341;SDS011;1684;50.748;6.154;2022-08-01T14:52:18;4.10;;;3.70;;
3341;SDS011;1684;50.748;6.154;2022-08-01T14:54:47;4.00;;;3.60;;
3341;SDS011;1684;50.748;6.154;2022-08-01T14:57:16;3.70;;;3.40;;
3341;SDS011;1684;50.748;6.154;2022-08-01T14:59:46;4.13;;;3.73;;
3341;SDS011;1684;50.748;6.154;2022-08-01T15:02:14;4.90;;;4.20;;
3341;SDS011;1684;50.748;6.154;2022-08-01T15:04:43;4.40;;;4.00;;
3341;SDS011;1684;50.748;6.154;2022-08-01T15:07:12;7.13;;;3.97;;
3341;SDS011;1684;50.748;6.154;2022-08-01T15:09:41;4.20;;;3.80;;
3341;SDS011;1684;50.748;6.154;2022-08-01T15:12:09;4.20;;;3.80;;
3341;SDS011;1684;50.748;6.154;2022-08-01T15:14:37;4.30;;;3.90;;
3341;SDS011;1684;50.748;6.154;2022-08-01T15:17:16;3.80;;;3.43;;
3341;SDS011;1684;50.748;6.154;2022-08-01T15:19:45;4.70;;;3.00;;
3341;SDS011;1684;50.748;6.154;2022-08-01T15:22:13;5.20;;;4.43;;
3341;SDS011;1684;50.748;6.154;2022-08-01T15:24:42;3.63;;;3.33;;
3341;SDS011;1684;50.748;6.154;2022-08-01T15:27:10;4.13;;;3.40;;
3341;SDS011;1684;50.748;6.154;2022-08-01T15:29:39;3.93;;;3.50;;
3341;SDS011;1684;50.748;6.154;2022-08-01T15:32:08;5.40;;;3.23;;
3341;SDS011;1684;50.748;6.154;2022-08-01T15:34:38;3.80;;;3.40;;
3341;SDS011;1684;50.748;6.154;2022-08-01T15:37:07;4.50;;;4.10;;